sensor_id;sensor_type;location;lat;lon;timestamp;P1;durP1;ratioP1;P2;durP2;ratioP2
49296;SDS011;35163;48.878;18.040;2023-12-20T00:02:13;48.70;;;25.42;;
49296;SDS011;35163;48.878;18.040;2023-12-20T00:04:40;44.05;;;24.65;;
49296;SDS011;35163;48.878;18.040;2023-12-20T00:07:07;48.42;;;25.88;;
49296;SDS011;35163;48.878;18.040;2023-12-20T00:09:34;49.20;;;26.90;;
49296;SDS011;35163;48.878;18.040;2023-12-20T00:12:01;43.53;;;25.50;;
49296;SDS011;35163;48.878;18.040;2023-12-20T00:14:27;45.90;;;25.05;;
49296;SDS011;35163;48.878;18.040;2023-12-20T00:16:54;45.70;;;25.55;;
49296;SDS011;35163;48.878;18.040;2023-12-20T00:19:21;45.65;;;25.23;;
49296;SDS011;35163;48.878;18.040;2023-12-20T00:21:47;45.38;;;24.92;;
49296;SDS011;35163;48.878;18.040;2023-12-20T00:24:14;46.72;;;26.33;;
49296;SDS011;35163;48.878;18.040;2023-12-20T00:26:41;51.22;;;27.80;;
49296;SDS011;35163;48.878;18.040;2023-12-20T00:29:08;42.63;;;24.10;;
49296;SDS011;35163;48.878;18.040;2023-12-20T00:31:34;46.50;;;25.48;;
49296;SDS011;35163;48.878;18.040;2023-12-20T00:34:02;46.45;;;25.35;;
49296;SDS011;35163;48.878;18.040;2023-12-20T00:36:29;46.03;;;25.75;;
49296;SDS011;35163;48.878;18.040;2023-12-20T00:38:56;44.80;;;24.70;;
49296;SDS011;35163;48.878;18.040;2023-12-20T00:41:23;44.30;;;24.75;;
49296;SDS011;35163;48.878;18.040;2023-12-20T00:43:50;45.15;;;24.83;;
49296;SDS011;35163;48.878;18.040;2023-12-20T00:46:17;47.35;;;25.45;;
49296;SDS011;35163;48.878;18.040;2023-12-20T00:48:43;43.60;;;24.65;;
49296;SDS011;35163;48.878;18.040;2023-12-20T00:51:12;48.00;;;24.80;;
49296;SDS011;35163;48.878;18.040;2023-12-20T00:53:38;46.80;;;26.55;;
49296;SDS011;35163;48.878;18.040;2023-12-20T00:56:05;43.78;;;24.73;;
49296;SDS011;35163;48.878;18.040;2023-12-20T00:58:32;48.00;;;26.10;;
49296;SDS011;35163;48.878;18.040;2023-12-20T01:00:59;52.95;;;27.83;;
49296;SDS011;35163;48.878;18.040;2023-12-20T01:03:26;47.28;;;25.73;;
49296;SDS011;35163;48.878;18.040;2023-12-20T01:05:53;51.03;;;27.00;;
49296;SDS011;35163;48.878;18.040;2023-12-20T01:08:19;44.80;;;24.30;;
49296;SDS011;35163;48.878;18.040;2023-12-20T01:10:46;46.20;;;24.52;;
49296;SDS011;35163;48.878;18.040;2023-12-20T01:13:13;49.47;;;26.08;;
49296;SDS011;35163;48.878;18.040;2023-12-20T01:15:40;47.72;;;25.10;;
49296;SDS011;35163;48.878;18.040;2023-12-20T01:18:07;45.80;;;24.80;;
49296;SDS011;35163;48.878;18.040;2023-12-20T01:20:35;49.03;;;24.70;;
49296;SDS011;35163;48.878;18.040;2023-12-20T01:23:02;43.15;;;23.42;;
49296;SDS011;35163;48.878;18.040;2023-12-20T01:25:29;43.40;;;23.83;;
49296;SDS011;35163;48.878;18.040;2023-12-20T01:27:56;45.65;;;24.35;;
49296;SDS011;35163;48.878;18.040;2023-12-20T01:30:23;42.80;;;24.00;;
49296;SDS011;35163;48.878;18.040;2023-12-20T01:32:51;46.75;;;24.65;;
49296;SDS011;35163;48.878;18.040;2023-12-20T01:35:17;50.65;;;25.27;;
49296;SDS011;35163;48.878;18.040;2023-12-20T01:37:44;42.13;;;24.02;;
49296;SDS011;35163;48.878;18.040;2023-12-20T01:40:12;46.70;;;24.40;;
49296;SDS011;35163;48.878;18.040;2023-12-20T01:42:39;47.53;;;25.05;;
49296;SDS011;35163;48.878;18.040;2023-12-20T01:45:05;45.47;;;24.08;;
49296;SDS011;35163;48.878;18.040;2023-12-20T01:47:32;48.65;;;25.83;;
49296;SDS011;35163;48.878;18.040;2023-12-20T01:50:00;48.45;;;24.95;;
49296;SDS011;35163;48.878;18.040;2023-12-20T01:52:30;45.53;;;24.42;;
49296;SDS011;35163;48.878;18.040;2023-12-20T01:54:57;46.03;;;25.02;;
49296;SDS011;35163;48.878;18.040;2023-12-20T01:57:29;46.78;;;24.90;;
49296;SDS011;35163;48.878;18.040;2023-12-20T01:59:56;48.80;;;25.35;;
49296;SDS011;35163;48.878;18.040;2023-12-20T02:02:24;47.63;;;24.90;;
49296;SDS011;35163;48.878;18.040;2023-12-20T02:04:53;46.03;;;24.80;;
49296;SDS011;35163;48.878;18.040;2023-12-20T02:07:21;47.70;;;24.48;;
49296;SDS011;35163;48.878;18.040;2023-12-20T02:09:48;47.22;;;25.83;;
49296;SDS011;35163;48.878;18.040;2023-12-20T02:12:16;51.15;;;26.58;;
49296;SDS011;35163;48.878;18.040;2023-12-20T02:14:43;47.78;;;25.10;;
49296;SDS011;35163;48.878;18.040;2023-12-20T02:17:12;43.17;;;23.05;;
49296;SDS011;35163;48.878;18.040;2023-12-20T02:19:39;46.58;;;23.95;;
49296;SDS011;35163;48.878;18.040;2023-12-20T02:22:09;46.13;;;22.58;;
49296;SDS011;35163;48.878;18.040;2023-12-20T02:24:37;49.72;;;25.00;;
49296;SDS011;35163;48.878;18.040;2023-12-20T02:27:05;46.30;;;25.60;;
49296;SDS011;35163;48.878;18.040;2023-12-20T02:29:33;42.53;;;24.15;;
49296;SDS011;35163;48.878;18.040;2023-12-20T02:32:01;49.40;;;25.80;;
49296;SDS011;35163;48.878;18.040;2023-12-20T02:34:28;44.92;;;23.52;;
49296;SDS011;35163;48.878;18.040;2023-12-20T02:36:55;48.55;;;25.95;;
49296;SDS011;35163;48.878;18.040;2023-12-20T02:39:22;46.67;;;24.75;;
49296;SDS011;35163;48.878;18.040;2023-12-20T02:41:48;49.72;;;26.70;;
49296;SDS011;35163;48.878;18.040;2023-12-20T02:44:15;45.97;;;23.67;;
49296;SDS011;35163;48.878;18.040;2023-12-20T02:46:42;47.95;;;25.02;;
49296;SDS011;35163;48.878;18.040;2023-12-20T02:49:09;46.53;;;24.90;;
49296;SDS011;35163;48.878;18.040;2023-12-20T02:51:35;48.15;;;24.65;;
49296;SDS011;35163;48.878;18.040;2023-12-20T02:54:05;44.95;;;23.15;;
49296;SDS011;35163;48.878;18.040;2023-12-20T02:56:32;47.92;;;24.13;;
49296;SDS011;35163;48.878;18.040;2023-12-20T02:58:59;46.10;;;24.48;;
49296;SDS011;35163;48.878;18.040;2023-12-20T03:01:26;46.95;;;24.83;;
49296;SDS011;35163;48.878;18.040;2023-12-20T03:03:54;44.78;;;24.42;;
49296;SDS011;35163;48.878;18.040;2023-12-20T03:06:20;43.30;;;22.77;;
49296;SDS011;35163;48.878;18.040;2023-12-20T03:08:47;47.92;;;22.92;;
49296;SDS011;35163;48.878;18.040;2023-12-20T03:11:14;46.50;;;24.45;;
49296;SDS011;35163;48.878;18.040;2023-12-20T03:13:41;44.17;;;23.02;;
49296;SDS011;35163;48.878;18.040;2023-12-20T03:16:08;49.10;;;25.63;;
49296;SDS011;35163;48.878;18.040;2023-12-20T03:18:38;48.75;;;24.58;;
49296;SDS011;35163;48.878;18.040;2023-12-20T03:21:05;46.72;;;24.23;;
49296;SDS011;35163;48.878;18.040;2023-12-20T03:23:32;47.05;;;24.67;;
49296;SDS011;35163;48.878;18.040;2023-12-20T03:25:59;44.67;;;24.27;;
49296;SDS011;35163;48.878;18.040;2023-12-20T03:28:27;47.63;;;25.30;;
49296;SDS011;35163;48.878;18.040;2023-12-20T03:30:54;46.50;;;25.83;;
49296;SDS011;35163;48.878;18.040;2023-12-20T03:33:21;44.72;;;23.58;;
49296;SDS011;35163;48.878;18.040;2023-12-20T03:35:48;46.47;;;24.27;;
49296;SDS011;35163;48.878;18.040;2023-12-20T03:38:14;48.85;;;25.33;;
49296;SDS011;35163;48.878;18.040;2023-12-20T03:40:41;44.65;;;23.58;;
49296;SDS011;35163;48.878;18.040;2023-12-20T03:43:08;41.60;;;23.02;;
49296;SDS011;35163;48.878;18.040;2023-12-20T03:45:35;46.38;;;24.15;;
49296;SDS011;35163;48.878;18.040;2023-12-20T03:48:02;46.42;;;23.45;;
49296;SDS011;35163;48.878;18.040;2023-12-20T03:50:28;46.33;;;23.63;;
49296;SDS011;35163;48.878;18.040;2023-12-20T03:52:55;45.28;;;24.05;;
49296;SDS011;35163;48.878;18.040;2023-12-20T03:55:22;42.97;;;22.25;;
49296;SDS011;35163;48.878;18.040;2023-12-20T03:57:49;44.60;;;23.73;;
49296;SDS011;35163;48.878;18.040;2023-12-20T04:00:16;42.47;;;23.70;;
49296;SDS011;35163;48.878;18.040;2023-12-20T04:02:43;46.88;;;23.33;;
49296;SDS011;35163;48.878;18.040;2023-12-20T04:05:10;42.58;;;22.98;;
49296;SDS011;35163;48.878;18.040;2023-12-20T04:07:37;49.45;;;24.20;;
49296;SDS011;35163;48.878;18.040;2023-12-20T04:10:04;47.53;;;23.63;;
49296;SDS011;35163;48.878;18.040;2023-12-20T04:12:32;45.90;;;23.42;;
49296;SDS011;35163;48.878;18.040;2023-12-20T04:14:59;46.00;;;23.55;;
49296;SDS011;35163;48.878;18.040;2023-12-20T04:17:26;44.28;;;23.27;;
49296;SDS011;35163;48.878;18.040;2023-12-20T04:19:53;45.47;;;24.25;;
49296;SDS011;35163;48.878;18.040;2023-12-20T04:22:20;43.80;;;22.98;;
49296;SDS011;35163;48.878;18.040;2023-12-20T04:24:46;47.17;;;24.25;;
49296;SDS011;35163;48.878;18.040;2023-12-20T04:27:13;45.45;;;23.20;;
49296;SDS011;35163;48.878;18.040;2023-12-20T04:29:40;43.15;;;22.52;;
49296;SDS011;35163;48.878;18.040;2023-12-20T04:32:06;47.17;;;23.73;;
49296;SDS011;35163;48.878;18.040;2023-12-20T04:34:33;46.00;;;23.73;;
49296;SDS011;35163;48.878;18.040;2023-12-20T04:37:00;48.63;;;24.27;;
49296;SDS011;35163;48.878;18.040;2023-12-20T04:39:28;48.53;;;23.08;;
49296;SDS011;35163;48.878;18.040;2023-12-20T04:41:55;48.60;;;24.52;;
49296;SDS011;35163;48.878;18.040;2023-12-20T04:44:21;45.17;;;24.42;;
49296;SDS011;35163;48.878;18.040;2023-12-20T04:46:48;49.13;;;23.58;;
49296;SDS011;35163;48.878;18.040;2023-12-20T04:49:15;46.85;;;23.08;;
49296;SDS011;35163;48.878;18.040;2023-12-20T04:51:42;43.78;;;22.00;;
49296;SDS011;35163;48.878;18.040;2023-12-20T04:54:09;47.35;;;22.85;;
49296;SDS011;35163;48.878;18.040;2023-12-20T04:56:37;47.88;;;22.75;;
49296;SDS011;35163;48.878;18.040;2023-12-20T04:59:03;50.00;;;24.30;;
49296;SDS011;35163;48.878;18.040;2023-12-20T05:01:30;45.97;;;22.85;;
49296;SDS011;35163;48.878;18.040;2023-12-20T05:03:57;43.63;;;24.02;;
49296;SDS011;35163;48.878;18.040;2023-12-20T05:06:23;46.55;;;22.77;;
49296;SDS011;35163;48.878;18.040;2023-12-20T05:08:51;46.63;;;24.13;;
49296;SDS011;35163;48.878;18.040;2023-12-20T05:11:17;43.47;;;23.15;;
49296;SDS011;35163;48.878;18.040;2023-12-20T05:13:44;47.78;;;22.92;;
49296;SDS011;35163;48.878;18.040;2023-12-20T05:16:16;47.83;;;24.20;;
49296;SDS011;35163;48.878;18.040;2023-12-20T05:18:45;45.25;;;22.63;;
49296;SDS011;35163;48.878;18.040;2023-12-20T05:21:13;49.85;;;24.25;;
49296;SDS011;35163;48.878;18.040;2023-12-20T05:23:39;50.63;;;24.15;;
49296;SDS011;35163;48.878;18.040;2023-12-20T05:26:06;50.22;;;25.63;;
49296;SDS011;35163;48.878;18.040;2023-12-20T05:28:33;49.80;;;24.33;;
49296;SDS011;35163;48.878;18.040;2023-12-20T05:31:00;45.30;;;23.25;;
49296;SDS011;35163;48.878;18.040;2023-12-20T05:33:27;45.72;;;22.35;;
49296;SDS011;35163;48.878;18.040;2023-12-20T05:35:54;45.28;;;22.45;;
49296;SDS011;35163;48.878;18.040;2023-12-20T05:38:21;41.58;;;22.00;;
49296;SDS011;35163;48.878;18.040;2023-12-20T05:40:47;42.92;;;22.27;;
49296;SDS011;35163;48.878;18.040;2023-12-20T05:43:14;47.13;;;23.10;;
49296;SDS011;35163;48.878;18.040;2023-12-20T05:45:41;43.63;;;22.92;;
49296;SDS011;35163;48.878;18.040;2023-12-20T05:48:08;44.85;;;21.83;;
49296;SDS011;35163;48.878;18.040;2023-12-20T05:50:35;41.38;;;21.35;;
49296;SDS011;35163;48.878;18.040;2023-12-20T05:53:03;45.72;;;22.05;;
49296;SDS011;35163;48.878;18.040;2023-12-20T05:55:30;44.72;;;23.42;;
49296;SDS011;35163;48.878;18.040;2023-12-20T05:57:56;49.80;;;23.50;;
49296;SDS011;35163;48.878;18.040;2023-12-20T06:00:23;42.70;;;22.25;;
49296;SDS011;35163;48.878;18.040;2023-12-20T06:02:51;44.55;;;22.25;;
49296;SDS011;35163;48.878;18.040;2023-12-20T06:05:18;45.33;;;23.30;;
49296;SDS011;35163;48.878;18.040;2023-12-20T06:07:45;46.47;;;24.38;;
49296;SDS011;35163;48.878;18.040;2023-12-20T06:10:14;49.78;;;23.52;;
49296;SDS011;35163;48.878;18.040;2023-12-20T06:12:41;43.88;;;23.00;;
49296;SDS011;35163;48.878;18.040;2023-12-20T06:15:08;43.65;;;21.60;;
49296;SDS011;35163;48.878;18.040;2023-12-20T06:17:35;48.13;;;23.17;;
49296;SDS011;35163;48.878;18.040;2023-12-20T06:20:01;43.00;;;22.73;;
49296;SDS011;35163;48.878;18.040;2023-12-20T06:22:29;44.40;;;22.92;;
49296;SDS011;35163;48.878;18.040;2023-12-20T06:24:56;42.88;;;22.00;;
49296;SDS011;35163;48.878;18.040;2023-12-20T06:27:22;42.90;;;22.58;;
49296;SDS011;35163;48.878;18.040;2023-12-20T06:29:49;45.30;;;23.13;;
49296;SDS011;35163;48.878;18.040;2023-12-20T06:32:16;42.78;;;22.55;;
49296;SDS011;35163;48.878;18.040;2023-12-20T06:34:43;45.22;;;23.77;;
49296;SDS011;35163;48.878;18.040;2023-12-20T06:37:09;46.10;;;23.02;;
49296;SDS011;35163;48.878;18.040;2023-12-20T06:39:36;45.60;;;23.27;;
49296;SDS011;35163;48.878;18.040;2023-12-20T06:42:03;43.50;;;22.73;;
49296;SDS011;35163;48.878;18.040;2023-12-20T06:44:30;44.05;;;22.10;;
49296;SDS011;35163;48.878;18.040;2023-12-20T06:46:58;43.28;;;22.02;;
49296;SDS011;35163;48.878;18.040;2023-12-20T06:49:24;46.63;;;24.05;;
49296;SDS011;35163;48.878;18.040;2023-12-20T06:51:51;42.67;;;21.40;;
49296;SDS011;35163;48.878;18.040;2023-12-20T06:54:18;45.78;;;24.00;;
49296;SDS011;35163;48.878;18.040;2023-12-20T06:56:45;46.65;;;23.90;;
49296;SDS011;35163;48.878;18.040;2023-12-20T06:59:11;43.70;;;23.10;;
49296;SDS011;35163;48.878;18.040;2023-12-20T07:01:38;42.97;;;22.23;;
49296;SDS011;35163;48.878;18.040;2023-12-20T07:04:05;45.03;;;23.75;;
49296;SDS011;35163;48.878;18.040;2023-12-20T07:06:32;47.70;;;23.40;;
49296;SDS011;35163;48.878;18.040;2023-12-20T07:08:59;24.40;;;13.35;;
49296;SDS011;35163;48.878;18.040;2023-12-20T07:11:25;38.83;;;19.27;;
49296;SDS011;35163;48.878;18.040;2023-12-20T07:13:52;46.83;;;24.17;;
49296;SDS011;35163;48.878;18.040;2023-12-20T07:16:20;42.95;;;21.50;;
49296;SDS011;35163;48.878;18.040;2023-12-20T07:18:47;43.03;;;21.92;;
49296;SDS011;35163;48.878;18.040;2023-12-20T07:21:14;42.58;;;21.75;;
49296;SDS011;35163;48.878;18.040;2023-12-20T07:23:42;44.28;;;23.13;;
49296;SDS011;35163;48.878;18.040;2023-12-20T07:26:09;41.80;;;22.48;;
49296;SDS011;35163;48.878;18.040;2023-12-20T07:28:35;48.78;;;23.70;;
49296;SDS011;35163;48.878;18.040;2023-12-20T07:31:02;43.63;;;22.95;;
49296;SDS011;35163;48.878;18.040;2023-12-20T07:33:29;45.03;;;23.10;;
49296;SDS011;35163;48.878;18.040;2023-12-20T07:36:05;42.63;;;23.02;;
49296;SDS011;35163;48.878;18.040;2023-12-20T07:38:32;45.55;;;24.63;;
49296;SDS011;35163;48.878;18.040;2023-12-20T07:40:58;45.58;;;23.95;;
49296;SDS011;35163;48.878;18.040;2023-12-20T07:43:25;46.70;;;24.48;;
49296;SDS011;35163;48.878;18.040;2023-12-20T07:45:52;49.47;;;24.20;;
49296;SDS011;35163;48.878;18.040;2023-12-20T07:48:19;44.20;;;24.65;;
49296;SDS011;35163;48.878;18.040;2023-12-20T07:50:45;47.20;;;24.60;;
49296;SDS011;35163;48.878;18.040;2023-12-20T07:53:12;51.72;;;25.90;;
49296;SDS011;35163;48.878;18.040;2023-12-20T07:55:39;47.58;;;24.83;;
49296;SDS011;35163;48.878;18.040;2023-12-20T07:58:06;47.70;;;24.00;;
49296;SDS011;35163;48.878;18.040;2023-12-20T08:00:33;51.67;;;26.08;;
49296;SDS011;35163;48.878;18.040;2023-12-20T08:02:59;53.05;;;25.10;;
49296;SDS011;35163;48.878;18.040;2023-12-20T08:05:29;48.97;;;25.35;;
49296;SDS011;35163;48.878;18.040;2023-12-20T08:07:56;51.53;;;25.42;;
49296;SDS011;35163;48.878;18.040;2023-12-20T08:10:23;49.15;;;25.65;;
49296;SDS011;35163;48.878;18.040;2023-12-20T08:12:50;48.70;;;25.70;;
49296;SDS011;35163;48.878;18.040;2023-12-20T08:15:17;51.90;;;26.42;;
49296;SDS011;35163;48.878;18.040;2023-12-20T08:17:44;51.97;;;26.27;;
49296;SDS011;35163;48.878;18.040;2023-12-20T08:20:11;48.50;;;24.38;;
49296;SDS011;35163;48.878;18.040;2023-12-20T08:22:40;55.10;;;27.40;;
49296;SDS011;35163;48.878;18.040;2023-12-20T08:25:07;45.30;;;24.80;;
49296;SDS011;35163;48.878;18.040;2023-12-20T08:27:41;54.13;;;25.60;;
49296;SDS011;35163;48.878;18.040;2023-12-20T08:30:08;52.42;;;25.95;;
49296;SDS011;35163;48.878;18.040;2023-12-20T08:32:36;49.70;;;25.20;;
49296;SDS011;35163;48.878;18.040;2023-12-20T08:35:03;47.00;;;24.52;;
49296;SDS011;35163;48.878;18.040;2023-12-20T08:37:31;46.83;;;24.42;;
49296;SDS011;35163;48.878;18.040;2023-12-20T08:39:58;46.67;;;24.60;;
49296;SDS011;35163;48.878;18.040;2023-12-20T08:42:24;48.25;;;26.17;;
49296;SDS011;35163;48.878;18.040;2023-12-20T08:44:57;44.15;;;23.48;;
49296;SDS011;35163;48.878;18.040;2023-12-20T08:47:27;42.17;;;23.48;;
49296;SDS011;35163;48.878;18.040;2023-12-20T08:49:54;41.30;;;21.17;;
49296;SDS011;35163;48.878;18.040;2023-12-20T08:52:23;40.90;;;22.48;;
49296;SDS011;35163;48.878;18.040;2023-12-20T08:54:50;41.80;;;22.20;;
49296;SDS011;35163;48.878;18.040;2023-12-20T08:57:20;40.38;;;22.17;;
49296;SDS011;35163;48.878;18.040;2023-12-20T08:59:47;42.92;;;22.42;;
49296;SDS011;35163;48.878;18.040;2023-12-20T09:02:14;38.50;;;21.60;;
49296;SDS011;35163;48.878;18.040;2023-12-20T09:04:41;41.40;;;21.85;;
49296;SDS011;35163;48.878;18.040;2023-12-20T09:07:26;42.03;;;22.40;;
49296;SDS011;35163;48.878;18.040;2023-12-20T09:09:56;41.97;;;22.98;;
49296;SDS011;35163;48.878;18.040;2023-12-20T09:12:24;38.00;;;21.90;;
49296;SDS011;35163;48.878;18.040;2023-12-20T09:14:51;36.05;;;20.13;;
49296;SDS011;35163;48.878;18.040;2023-12-20T09:17:18;37.10;;;19.90;;
49296;SDS011;35163;48.878;18.040;2023-12-20T09:19:45;38.03;;;21.08;;
49296;SDS011;35163;48.878;18.040;2023-12-20T09:22:12;42.40;;;22.42;;
49296;SDS011;35163;48.878;18.040;2023-12-20T09:24:39;40.05;;;21.23;;
49296;SDS011;35163;48.878;18.040;2023-12-20T09:27:06;39.28;;;21.98;;
49296;SDS011;35163;48.878;18.040;2023-12-20T09:29:33;41.17;;;21.63;;
49296;SDS011;35163;48.878;18.040;2023-12-20T09:31:59;43.35;;;23.20;;
49296;SDS011;35163;48.878;18.040;2023-12-20T09:34:26;39.90;;;21.20;;
49296;SDS011;35163;48.878;18.040;2023-12-20T09:36:53;35.88;;;19.40;;
49296;SDS011;35163;48.878;18.040;2023-12-20T09:39:20;38.28;;;20.33;;
49296;SDS011;35163;48.878;18.040;2023-12-20T09:42:00;35.90;;;20.77;;
49296;SDS011;35163;48.878;18.040;2023-12-20T09:44:29;41.90;;;20.63;;
49296;SDS011;35163;48.878;18.040;2023-12-20T09:46:57;39.10;;;20.60;;
49296;SDS011;35163;48.878;18.040;2023-12-20T09:49:24;38.78;;;21.15;;
49296;SDS011;35163;48.878;18.040;2023-12-20T09:51:54;60.28;;;32.58;;
49296;SDS011;35163;48.878;18.040;2023-12-20T09:54:20;42.85;;;23.50;;
49296;SDS011;35163;48.878;18.040;2023-12-20T09:56:51;41.70;;;21.23;;
49296;SDS011;35163;48.878;18.040;2023-12-20T09:59:18;37.28;;;21.02;;
49296;SDS011;35163;48.878;18.040;2023-12-20T10:01:45;36.35;;;19.88;;
49296;SDS011;35163;48.878;18.040;2023-12-20T10:04:12;36.42;;;20.20;;
49296;SDS011;35163;48.878;18.040;2023-12-20T10:06:55;35.03;;;19.13;;
49296;SDS011;35163;48.878;18.040;2023-12-20T10:09:23;40.88;;;20.20;;
49296;SDS011;35163;48.878;18.040;2023-12-20T10:11:50;42.17;;;20.48;;
49296;SDS011;35163;48.878;18.040;2023-12-20T10:14:21;35.42;;;19.95;;
49296;SDS011;35163;48.878;18.040;2023-12-20T10:16:49;40.35;;;21.00;;
49296;SDS011;35163;48.878;18.040;2023-12-20T10:19:16;40.78;;;21.88;;
49296;SDS011;35163;48.878;18.040;2023-12-20T10:21:44;42.85;;;21.83;;
49296;SDS011;35163;48.878;18.040;2023-12-20T10:24:16;41.80;;;22.52;;
49296;SDS011;35163;48.878;18.040;2023-12-20T10:26:44;39.10;;;21.20;;
49296;SDS011;35163;48.878;18.040;2023-12-20T10:29:11;38.45;;;20.45;;
49296;SDS011;35163;48.878;18.040;2023-12-20T10:31:37;39.95;;;21.02;;
49296;SDS011;35163;48.878;18.040;2023-12-20T10:34:09;38.47;;;20.27;;
49296;SDS011;35163;48.878;18.040;2023-12-20T10:36:36;39.17;;;20.73;;
49296;SDS011;35163;48.878;18.040;2023-12-20T10:39:03;34.25;;;18.67;;
49296;SDS011;35163;48.878;18.040;2023-12-20T10:41:36;37.05;;;20.00;;
49296;SDS011;35163;48.878;18.040;2023-12-20T10:44:07;41.65;;;21.58;;
49296;SDS011;35163;48.878;18.040;2023-12-20T10:46:35;36.70;;;21.15;;
49296;SDS011;35163;48.878;18.040;2023-12-20T10:49:05;40.08;;;22.60;;
49296;SDS011;35163;48.878;18.040;2023-12-20T10:51:34;33.67;;;19.42;;
49296;SDS011;35163;48.878;18.040;2023-12-20T10:54:03;33.33;;;19.23;;
49296;SDS011;35163;48.878;18.040;2023-12-20T10:56:31;35.42;;;19.33;;
49296;SDS011;35163;48.878;18.040;2023-12-20T10:59:00;35.08;;;18.85;;
49296;SDS011;35163;48.878;18.040;2023-12-20T11:01:32;33.10;;;18.08;;
49296;SDS011;35163;48.878;18.040;2023-12-20T11:04:00;33.88;;;18.95;;
49296;SDS011;35163;48.878;18.040;2023-12-20T11:06:35;31.75;;;18.85;;
49296;SDS011;35163;48.878;18.040;2023-12-20T11:09:21;35.38;;;18.50;;
49296;SDS011;35163;48.878;18.040;2023-12-20T11:17:15;38.78;;;21.58;;
49296;SDS011;35163;48.878;18.040;2023-12-20T11:22:24;34.95;;;18.40;;
49296;SDS011;35163;48.878;18.040;2023-12-20T11:24:52;31.70;;;17.65;;
49296;SDS011;35163;48.878;18.040;2023-12-20T11:27:20;30.73;;;17.08;;
49296;SDS011;35163;48.878;18.040;2023-12-20T11:29:53;31.13;;;15.90;;
49296;SDS011;35163;48.878;18.040;2023-12-20T11:37:25;30.88;;;16.77;;
49296;SDS011;35163;48.878;18.040;2023-12-20T11:39:56;32.58;;;17.83;;
49296;SDS011;35163;48.878;18.040;2023-12-20T11:42:32;31.65;;;17.77;;
49296;SDS011;35163;48.878;18.040;2023-12-20T11:45:01;30.98;;;17.55;;
49296;SDS011;35163;48.878;18.040;2023-12-20T11:47:33;26.70;;;15.52;;
49296;SDS011;35163;48.878;18.040;2023-12-20T11:49:59;27.98;;;15.15;;
49296;SDS011;35163;48.878;18.040;2023-12-20T11:52:30;31.00;;;14.95;;
49296;SDS011;35163;48.878;18.040;2023-12-20T11:54:57;27.90;;;14.70;;
49296;SDS011;35163;48.878;18.040;2023-12-20T11:57:24;30.80;;;16.85;;
49296;SDS011;35163;48.878;18.040;2023-12-20T11:59:52;25.02;;;14.57;;
49296;SDS011;35163;48.878;18.040;2023-12-20T12:02:18;27.98;;;15.05;;
49296;SDS011;35163;48.878;18.040;2023-12-20T12:04:45;27.92;;;15.80;;
49296;SDS011;35163;48.878;18.040;2023-12-20T12:07:15;28.13;;;16.38;;
49296;SDS011;35163;48.878;18.040;2023-12-20T12:09:42;27.42;;;15.90;;
49296;SDS011;35163;48.878;18.040;2023-12-20T12:12:10;27.25;;;14.90;;
49296;SDS011;35163;48.878;18.040;2023-12-20T12:14:39;28.17;;;15.13;;
49296;SDS011;35163;48.878;18.040;2023-12-20T12:17:10;29.88;;;15.27;;
49296;SDS011;35163;48.878;18.040;2023-12-20T12:19:40;26.17;;;13.75;;
49296;SDS011;35163;48.878;18.040;2023-12-20T12:22:08;24.73;;;13.63;;
49296;SDS011;35163;48.878;18.040;2023-12-20T12:24:43;25.63;;;13.95;;
49296;SDS011;35163;48.878;18.040;2023-12-20T12:27:11;23.27;;;13.23;;
49296;SDS011;35163;48.878;18.040;2023-12-20T12:29:39;24.10;;;12.10;;
49296;SDS011;35163;48.878;18.040;2023-12-20T12:32:06;23.08;;;12.80;;
49296;SDS011;35163;48.878;18.040;2023-12-20T12:34:35;21.63;;;11.80;;
49296;SDS011;35163;48.878;18.040;2023-12-20T12:37:06;22.02;;;12.18;;
49296;SDS011;35163;48.878;18.040;2023-12-20T12:39:33;18.55;;;10.70;;
49296;SDS011;35163;48.878;18.040;2023-12-20T12:42:00;17.88;;;8.57;;
49296;SDS011;35163;48.878;18.040;2023-12-20T12:44:27;19.90;;;10.10;;
49296;SDS011;35163;48.878;18.040;2023-12-20T12:46:54;20.27;;;10.55;;
49296;SDS011;35163;48.878;18.040;2023-12-20T12:49:21;19.55;;;9.90;;
49296;SDS011;35163;48.878;18.040;2023-12-20T12:51:48;26.70;;;17.15;;
49296;SDS011;35163;48.878;18.040;2023-12-20T12:54:15;21.63;;;12.68;;
49296;SDS011;35163;48.878;18.040;2023-12-20T12:56:43;20.08;;;10.80;;
49296;SDS011;35163;48.878;18.040;2023-12-20T12:59:11;18.80;;;10.20;;
49296;SDS011;35163;48.878;18.040;2023-12-20T13:01:38;18.85;;;9.98;;
49296;SDS011;35163;48.878;18.040;2023-12-20T13:04:05;17.65;;;9.73;;
49296;SDS011;35163;48.878;18.040;2023-12-20T13:06:37;20.38;;;9.75;;
49296;SDS011;35163;48.878;18.040;2023-12-20T13:09:05;18.15;;;9.40;;
49296;SDS011;35163;48.878;18.040;2023-12-20T13:11:32;16.25;;;9.18;;
49296;SDS011;35163;48.878;18.040;2023-12-20T13:14:00;16.65;;;8.23;;
49296;SDS011;35163;48.878;18.040;2023-12-20T13:16:27;14.52;;;8.07;;
49296;SDS011;35163;48.878;18.040;2023-12-20T13:18:54;15.18;;;8.35;;
49296;SDS011;35163;48.878;18.040;2023-12-20T13:21:22;14.13;;;7.10;;
49296;SDS011;35163;48.878;18.040;2023-12-20T13:23:49;13.38;;;6.57;;
49296;SDS011;35163;48.878;18.040;2023-12-20T13:26:15;10.70;;;5.72;;
49296;SDS011;35163;48.878;18.040;2023-12-20T13:28:42;12.57;;;6.43;;
49296;SDS011;35163;48.878;18.040;2023-12-20T13:31:09;11.05;;;5.82;;
49296;SDS011;35163;48.878;18.040;2023-12-20T13:33:36;9.57;;;4.40;;
49296;SDS011;35163;48.878;18.040;2023-12-20T13:36:03;10.55;;;5.65;;
49296;SDS011;35163;48.878;18.040;2023-12-20T13:38:33;11.73;;;5.78;;
49296;SDS011;35163;48.878;18.040;2023-12-20T13:41:00;11.90;;;5.78;;
49296;SDS011;35163;48.878;18.040;2023-12-20T13:43:27;13.02;;;6.60;;
49296;SDS011;35163;48.878;18.040;2023-12-20T13:45:54;11.50;;;6.00;;
49296;SDS011;35163;48.878;18.040;2023-12-20T13:48:22;13.27;;;6.65;;
49296;SDS011;35163;48.878;18.040;2023-12-20T13:50:49;15.85;;;7.22;;
49296;SDS011;35163;48.878;18.040;2023-12-20T13:53:16;11.15;;;5.65;;
49296;SDS011;35163;48.878;18.040;2023-12-20T13:55:43;11.25;;;5.78;;
49296;SDS011;35163;48.878;18.040;2023-12-20T13:58:10;16.35;;;7.57;;
49296;SDS011;35163;48.878;18.040;2023-12-20T14:00:36;19.73;;;7.25;;
49296;SDS011;35163;48.878;18.040;2023-12-20T14:03:04;13.43;;;6.63;;
49296;SDS011;35163;48.878;18.040;2023-12-20T14:05:31;13.20;;;5.95;;
49296;SDS011;35163;48.878;18.040;2023-12-20T14:07:58;12.07;;;6.20;;
49296;SDS011;35163;48.878;18.040;2023-12-20T14:10:25;12.68;;;6.13;;
49296;SDS011;35163;48.878;18.040;2023-12-20T14:12:56;13.40;;;6.30;;
49296;SDS011;35163;48.878;18.040;2023-12-20T14:15:23;11.90;;;5.90;;
49296;SDS011;35163;48.878;18.040;2023-12-20T14:17:51;11.88;;;6.25;;
49296;SDS011;35163;48.878;18.040;2023-12-20T14:20:19;13.80;;;6.95;;
49296;SDS011;35163;48.878;18.040;2023-12-20T14:22:46;10.60;;;5.80;;
49296;SDS011;35163;48.878;18.040;2023-12-20T14:25:13;15.30;;;5.82;;
49296;SDS011;35163;48.878;18.040;2023-12-20T14:27:41;9.88;;;4.85;;